sensor_id;sensor_type;location;lat;lon;timestamp;pressure;altitude;pressure_sealevel;temperature;humidity
51313;BME280;37397;53.226;10.400;2023-07-13T00:01:47;100844.44;;;21.94;57.02
51313;BME280;37397;53.226;10.400;2023-07-13T00:04:19;100841.53;;;21.94;57.02
51313;BME280;37397;53.226;10.400;2023-07-13T00:06:46;100842.66;;;21.91;57.06
51313;BME280;37397;53.226;10.400;2023-07-13T00:09:17;100847.69;;;21.90;56.99
51313;BME280;37397;53.226;10.400;2023-07-13T00:11:45;100846.69;;;21.88;56.92
51313;BME280;37397;53.226;10.400;2023-07-13T00:14:14;100839.09;;;21.84;57.11
51313;BME280;37397;53.226;10.400;2023-07-13T00:16:42;100844.13;;;21.84;57.08
51313;BME280;37397;53.226;10.400;2023-07-13T00:19:12;100841.78;;;21.82;57.10
51313;BME280;37397;53.226;10.400;2023-07-13T00:21:40;100850.50;;;21.82;56.95
51313;BME280;37397;53.226;10.400;2023-07-13T00:24:08;100851.59;;;21.79;57.04
51313;BME280;37397;53.226;10.400;2023-07-13T00:26:40;100846.91;;;21.76;57.03
51313;BME280;37397;53.226;10.400;2023-07-13T00:29:07;100846.16;;;21.76;57.07
51313;BME280;37397;53.226;10.400;2023-07-13T00:31:35;100858.31;;;21.74;57.19
51313;BME280;37397;53.226;10.400;2023-07-13T00:34:03;100847.81;;;21.71;57.15
51313;BME280;37397;53.226;10.400;2023-07-13T00:36:30;100844.72;;;21.69;57.08
51313;BME280;37397;53.226;10.400;2023-07-13T00:38:57;100847.16;;;21.65;57.11
51313;BME280;37397;53.226;10.400;2023-07-13T00:41:24;100847.16;;;21.65;57.15
51313;BME280;37397;53.226;10.400;2023-07-13T00:43:50;100855.44;;;21.61;57.19
51313;BME280;37397;53.226;10.400;2023-07-13T00:46:24;100850.97;;;21.60;57.33
51313;BME280;37397;53.226;10.400;2023-07-13T00:48:53;100856.56;;;21.58;57.17
51313;BME280;37397;53.226;10.400;2023-07-13T00:51:25;100845.28;;;21.54;57.30
51313;BME280;37397;53.226;10.400;2023-07-13T00:53:56;100845.59;;;21.51;57.38
51313;BME280;37397;53.226;10.400;2023-07-13T00:56:25;100852.78;;;21.49;57.37
51313;BME280;37397;53.226;10.400;2023-07-13T00:58:53;100848.06;;;21.46;57.39
51313;BME280;37397;53.226;10.400;2023-07-13T01:01:19;100847.03;;;21.44;57.43
51313;BME280;37397;53.226;10.400;2023-07-13T01:03:46;100851.84;;;21.41;57.36
51313;BME280;37397;53.226;10.400;2023-07-13T01:06:13;100862.44;;;21.39;57.37
51313;BME280;37397;53.226;10.400;2023-07-13T01:08:40;100856.97;;;21.35;57.53
51313;BME280;37397;53.226;10.400;2023-07-13T01:11:06;100859.63;;;21.33;57.39
51313;BME280;37397;53.226;10.400;2023-07-13T01:13:34;100848.38;;;21.29;57.48
51313;BME280;37397;53.226;10.400;2023-07-13T01:16:05;100845.03;;;21.25;57.36
51313;BME280;37397;53.226;10.400;2023-07-13T01:18:38;100849.25;;;21.24;57.53
51313;BME280;37397;53.226;10.400;2023-07-13T01:21:04;100849.59;;;21.21;57.55
51313;BME280;37397;53.226;10.400;2023-07-13T01:23:32;100853.41;;;21.16;57.45
51313;BME280;37397;53.226;10.400;2023-07-13T01:25:59;100864.75;;;21.13;57.66
51313;BME280;37397;53.226;10.400;2023-07-13T01:28:27;100861.63;;;21.11;57.65
51313;BME280;37397;53.226;10.400;2023-07-13T01:30:56;100869.31;;;21.09;57.41
51313;BME280;37397;53.226;10.400;2023-07-13T01:33:23;100864.66;;;21.06;57.54
51313;BME280;37397;53.226;10.400;2023-07-13T01:35:50;100857.63;;;21.01;57.59
51313;BME280;37397;53.226;10.400;2023-07-13T01:38:21;100864.75;;;21.00;57.63
51313;BME280;37397;53.226;10.400;2023-07-13T01:40:50;100859.03;;;20.94;57.84
51313;BME280;37397;53.226;10.400;2023-07-13T01:43:18;100858.25;;;20.94;57.84
51313;BME280;37397;53.226;10.400;2023-07-13T01:45:45;100860.94;;;20.92;58.00
51313;BME280;37397;53.226;10.400;2023-07-13T01:48:13;100856.81;;;20.87;57.96
51313;BME280;37397;53.226;10.400;2023-07-13T01:50:40;100873.44;;;20.87;57.75
51313;BME280;37397;53.226;10.400;2023-07-13T01:53:07;100864.25;;;20.83;57.94
51313;BME280;37397;53.226;10.400;2023-07-13T01:55:35;100861.91;;;20.81;57.96
51313;BME280;37397;53.226;10.400;2023-07-13T01:58:02;100864.59;;;20.79;57.88
51313;BME280;37397;53.226;10.400;2023-07-13T02:00:29;100866.47;;;20.76;57.96
51313;BME280;37397;53.226;10.400;2023-07-13T02:02:56;100870.72;;;20.75;57.82
51313;BME280;37397;53.226;10.400;2023-07-13T02:05:23;100868.13;;;20.72;58.11
51313;BME280;37397;53.226;10.400;2023-07-13T02:07:49;100867.69;;;20.68;58.00
51313;BME280;37397;53.226;10.400;2023-07-13T02:10:17;100875.59;;;20.67;58.10
51313;BME280;37397;53.226;10.400;2023-07-13T02:12:44;100866.66;;;20.65;57.90
51313;BME280;37397;53.226;10.400;2023-07-13T02:15:11;100876.44;;;20.62;58.08
51313;BME280;37397;53.226;10.400;2023-07-13T02:17:37;100874.63;;;20.59;58.25
51313;BME280;37397;53.226;10.400;2023-07-13T02:20:04;100874.41;;;20.57;58.12
51313;BME280;37397;53.226;10.400;2023-07-13T02:22:31;100875.50;;;20.54;57.96
51313;BME280;37397;53.226;10.400;2023-07-13T02:24:58;100874.50;;;20.51;58.04
51313;BME280;37397;53.226;10.400;2023-07-13T02:27:25;100866.38;;;20.50;58.11
51313;BME280;37397;53.226;10.400;2023-07-13T02:29:52;100873.25;;;20.47;58.13
51313;BME280;37397;53.226;10.400;2023-07-13T02:32:20;100868.56;;;20.44;58.19
51313;BME280;37397;53.226;10.400;2023-07-13T02:34:47;100877.03;;;20.42;58.32
51313;BME280;37397;53.226;10.400;2023-07-13T02:37:13;100870.75;;;20.37;58.19
51313;BME280;37397;53.226;10.400;2023-07-13T02:39:40;100874.44;;;20.38;58.40
51313;BME280;37397;53.226;10.400;2023-07-13T02:42:07;100874.75;;;20.34;58.14
51313;BME280;37397;53.226;10.400;2023-07-13T02:44:34;100871.41;;;20.30;58.14
51313;BME280;37397;53.226;10.400;2023-07-13T02:47:00;100868.25;;;20.28;58.17
51313;BME280;37397;53.226;10.400;2023-07-13T02:49:28;100874.84;;;20.29;58.18
51313;BME280;37397;53.226;10.400;2023-07-13T02:51:55;100873.84;;;20.26;58.15
51313;BME280;37397;53.226;10.400;2023-07-13T02:54:21;100872.81;;;20.23;58.30
51313;BME280;37397;53.226;10.400;2023-07-13T02:56:48;100864.44;;;20.20;58.21
51313;BME280;37397;53.226;10.400;2023-07-13T02:59:14;100865.53;;;20.17;58.39
51313;BME280;37397;53.226;10.400;2023-07-13T03:01:41;100872.69;;;20.16;58.23
51313;BME280;37397;53.226;10.400;2023-07-13T03:04:08;100875.31;;;20.14;58.12
51313;BME280;37397;53.226;10.400;2023-07-13T03:06:34;100883.78;;;20.12;58.27
51313;BME280;37397;53.226;10.400;2023-07-13T03:09:02;100883.56;;;20.10;58.24
51313;BME280;37397;53.226;10.400;2023-07-13T03:11:32;100888.31;;;20.07;58.32
51313;BME280;37397;53.226;10.400;2023-07-13T03:14:07;100881.25;;;20.02;58.07
51313;BME280;37397;53.226;10.400;2023-07-13T03:16:36;100871.56;;;20.00;58.29
51313;BME280;37397;53.226;10.400;2023-07-13T03:19:03;100881.03;;;20.00;58.15
51313;BME280;37397;53.226;10.400;2023-07-13T03:21:29;100880.81;;;19.98;58.24
51313;BME280;37397;53.226;10.400;2023-07-13T03:23:56;100877.66;;;19.96;58.39
51313;BME280;37397;53.226;10.400;2023-07-13T03:26:22;100874.53;;;19.94;58.42
51313;BME280;37397;53.226;10.400;2023-07-13T03:28:49;100879.06;;;19.90;58.41
51313;BME280;37397;53.226;10.400;2023-07-13T03:31:22;100869.38;;;19.87;58.47
51313;BME280;37397;53.226;10.400;2023-07-13T03:33:50;100880.97;;;19.87;58.53
51313;BME280;37397;53.226;10.400;2023-07-13T03:36:23;100883.59;;;19.85;58.39
51313;BME280;37397;53.226;10.400;2023-07-13T03:38:58;100886.25;;;19.83;58.22
51313;BME280;37397;53.226;10.400;2023-07-13T03:41:33;100885.50;;;19.82;58.32
51313;BME280;37397;53.226;10.400;2023-07-13T03:43:59;100876.31;;;19.78;58.43
51313;BME280;37397;53.226;10.400;2023-07-13T03:46:26;100889.47;;;19.79;58.39
51313;BME280;37397;53.226;10.400;2023-07-13T03:48:53;100886.91;;;19.76;58.58
51313;BME280;37397;53.226;10.400;2023-07-13T03:51:21;100891.84;;;19.75;58.66
51313;BME280;37397;53.226;10.400;2023-07-13T03:53:48;100892.41;;;19.74;58.48
51313;BME280;37397;53.226;10.400;2023-07-13T03:56:18;100886.38;;;19.72;58.43
51313;BME280;37397;53.226;10.400;2023-07-13T03:58:46;100887.16;;;19.72;58.97
51313;BME280;37397;53.226;10.400;2023-07-13T04:01:18;100886.91;;;19.70;58.70
51313;BME280;37397;53.226;10.400;2023-07-13T04:03:45;100880.13;;;19.67;58.78
51313;BME280;37397;53.226;10.400;2023-07-13T04:06:16;100884.56;;;19.68;58.84
51313;BME280;37397;53.226;10.400;2023-07-13T04:08:58;100873.84;;;19.63;58.90
51313;BME280;37397;53.226;10.400;2023-07-13T04:11:27;100880.41;;;19.64;59.04
51313;BME280;37397;53.226;10.400;2023-07-13T04:13:55;100889.91;;;19.64;58.76
51313;BME280;37397;53.226;10.400;2023-07-13T04:16:21;100888.31;;;19.63;59.05
51313;BME280;37397;53.226;10.400;2023-07-13T04:18:48;100883.84;;;19.62;58.84
51313;BME280;37397;53.226;10.400;2023-07-13T04:21:16;100895.44;;;19.62;58.90
51313;BME280;37397;53.226;10.400;2023-07-13T04:23:43;100886.50;;;19.60;59.01
51313;BME280;37397;53.226;10.400;2023-07-13T04:26:09;100882.31;;;19.61;59.25
51313;BME280;37397;53.226;10.400;2023-07-13T04:28:36;100886.50;;;19.60;59.01
51313;BME280;37397;53.226;10.400;2023-07-13T04:31:03;100893.88;;;19.61;59.28
51313;BME280;37397;53.226;10.400;2023-07-13T04:33:30;100899.66;;;19.61;59.10
51313;BME280;37397;53.226;10.400;2023-07-13T04:35:57;100896.78;;;19.61;59.41
51313;BME280;37397;53.226;10.400;2023-07-13T04:38:28;100887.28;;;19.61;59.45
51313;BME280;37397;53.226;10.400;2023-07-13T04:40:57;100890.44;;;19.63;59.44
51313;BME280;37397;53.226;10.400;2023-07-13T04:43:24;100878.06;;;19.62;59.59
51313;BME280;37397;53.226;10.400;2023-07-13T04:45:52;100882.31;;;19.61;59.40
51313;BME280;37397;53.226;10.400;2023-07-13T04:48:19;100878.31;;;19.64;59.34
51313;BME280;37397;53.226;10.400;2023-07-13T04:50:46;100874.63;;;19.64;59.29
51313;BME280;37397;53.226;10.400;2023-07-13T04:53:13;100881.22;;;19.64;59.64
51313;BME280;37397;53.226;10.400;2023-07-13T04:55:40;100885.13;;;19.67;59.47
51313;BME280;37397;53.226;10.400;2023-07-13T04:58:07;100880.91;;;19.68;59.28
51313;BME280;37397;53.226;10.400;2023-07-13T05:00:33;100885.91;;;19.67;59.68
51313;BME280;37397;53.226;10.400;2023-07-13T05:03:00;100869.31;;;19.68;59.44
51313;BME280;37397;53.226;10.400;2023-07-13T05:05:27;100880.34;;;19.70;59.39
51313;BME280;37397;53.226;10.400;2023-07-13T05:07:54;100879.03;;;19.71;59.26
51313;BME280;37397;53.226;10.400;2023-07-13T05:10:20;100875.56;;;19.72;59.37
51313;BME280;37397;53.226;10.400;2023-07-13T05:12:47;100875.56;;;19.72;59.57
51313;BME280;37397;53.226;10.400;2023-07-13T05:15:14;100876.59;;;19.75;59.76
51313;BME280;37397;53.226;10.400;2023-07-13T05:17:41;100884.78;;;19.76;59.61
51313;BME280;37397;53.226;10.400;2023-07-13T05:20:08;100890.03;;;19.78;59.63
51313;BME280;37397;53.226;10.400;2023-07-13T05:22:35;100888.16;;;19.80;59.43
51313;BME280;37397;53.226;10.400;2023-07-13T05:25:07;100887.84;;;19.84;59.30
51313;BME280;37397;53.226;10.400;2023-07-13T05:27:34;100890.19;;;19.85;59.34
51313;BME280;37397;53.226;10.400;2023-07-13T05:30:02;100899.88;;;19.88;59.61
51313;BME280;37397;53.226;10.400;2023-07-13T05:32:29;100902.25;;;19.90;59.38
51313;BME280;37397;53.226;10.400;2023-07-13T05:34:55;100899.06;;;19.93;59.46
51313;BME280;37397;53.226;10.400;2023-07-13T05:37:22;100912.41;;;19.96;59.54
51313;BME280;37397;53.226;10.400;2023-07-13T05:39:48;100908.19;;;19.97;59.09
51313;BME280;37397;53.226;10.400;2023-07-13T05:42:15;100900.53;;;20.00;59.42
51313;BME280;37397;53.226;10.400;2023-07-13T05:44:41;100902.34;;;20.03;59.46
51313;BME280;37397;53.226;10.400;2023-07-13T05:47:08;100898.34;;;20.06;59.39
51313;BME280;37397;53.226;10.400;2023-07-13T05:49:34;100900.22;;;20.03;59.38
51313;BME280;37397;53.226;10.400;2023-07-13T05:52:01;100900.72;;;20.08;59.28
51313;BME280;37397;53.226;10.400;2023-07-13T05:54:27;100915.66;;;20.12;59.06
51313;BME280;37397;53.226;10.400;2023-07-13T05:56:54;100919.59;;;20.14;59.00
51313;BME280;37397;53.226;10.400;2023-07-13T05:59:20;100917.22;;;20.13;59.13
51313;BME280;37397;53.226;10.400;2023-07-13T06:01:47;100925.59;;;20.16;59.10
51313;BME280;37397;53.226;10.400;2023-07-13T06:04:13;100922.16;;;20.18;58.93
51313;BME280;37397;53.226;10.400;2023-07-13T06:06:40;100922.16;;;20.18;59.21
51313;BME280;37397;53.226;10.400;2023-07-13T06:09:06;100915.28;;;20.21;59.11
51313;BME280;37397;53.226;10.400;2023-07-13T06:11:33;100923.41;;;20.22;58.95
51313;BME280;37397;53.226;10.400;2023-07-13T06:14:01;100922.63;;;20.22;58.90
51313;BME280;37397;53.226;10.400;2023-07-13T06:16:27;100921.53;;;20.25;59.01
51313;BME280;37397;53.226;10.400;2023-07-13T06:18:54;100924.66;;;20.27;58.95
51313;BME280;37397;53.226;10.400;2023-07-13T06:21:22;100939.38;;;20.29;59.01
51313;BME280;37397;53.226;10.400;2023-07-13T06:23:50;100934.38;;;20.30;58.92
51313;BME280;37397;53.226;10.400;2023-07-13T06:26:19;100940.41;;;20.32;59.00
51313;BME280;37397;53.226;10.400;2023-07-13T06:28:45;100938.84;;;20.31;59.04
51313;BME280;37397;53.226;10.400;2023-07-13T06:31:13;100945.63;;;20.33;58.83
51313;BME280;37397;53.226;10.400;2023-07-13T06:33:41;100950.34;;;20.36;58.71
51313;BME280;37397;53.226;10.400;2023-07-13T06:36:08;100950.59;;;20.38;59.11
51313;BME280;37397;53.226;10.400;2023-07-13T06:38:36;100954.03;;;20.37;58.98
51313;BME280;37397;53.226;10.400;2023-07-13T06:41:02;100960.84;;;20.39;58.91
51313;BME280;37397;53.226;10.400;2023-07-13T06:43:29;100956.84;;;20.43;59.02
51313;BME280;37397;53.226;10.400;2023-07-13T06:45:58;100957.06;;;20.45;58.82
51313;BME280;37397;53.226;10.400;2023-07-13T06:48:25;100950.72;;;20.46;59.01
51313;BME280;37397;53.226;10.400;2023-07-13T06:50:51;100955.97;;;20.48;58.88
51313;BME280;37397;53.226;10.400;2023-07-13T06:53:19;100956.25;;;20.50;59.04
51313;BME280;37397;53.226;10.400;2023-07-13T06:55:46;100953.56;;;20.52;59.08
51313;BME280;37397;53.226;10.400;2023-07-13T06:58:16;100953.56;;;20.52;58.88
51313;BME280;37397;53.226;10.400;2023-07-13T07:00:43;100961.16;;;20.55;58.87
51313;BME280;37397;53.226;10.400;2023-07-13T07:03:10;100956.94;;;20.56;58.97
51313;BME280;37397;53.226;10.400;2023-07-13T07:05:37;100963.19;;;20.60;59.08
51313;BME280;37397;53.226;10.400;2023-07-13T07:08:04;100959.19;;;20.63;59.00
51313;BME280;37397;53.226;10.400;2023-07-13T07:10:30;100961.56;;;20.65;58.74
51313;BME280;37397;53.226;10.400;2023-07-13T07:12:58;100962.59;;;20.67;58.90
51313;BME280;37397;53.226;10.400;2023-07-13T07:15:25;100961.47;;;20.70;58.93
51313;BME280;37397;53.226;10.400;2023-07-13T07:17:52;100961.47;;;20.70;58.67
51313;BME280;37397;53.226;10.400;2023-07-13T07:20:18;100963.28;;;20.73;58.95
51313;BME280;37397;53.226;10.400;2023-07-13T07:22:45;100962.19;;;20.76;59.10
51313;BME280;37397;53.226;10.400;2023-07-13T07:25:14;100958.19;;;20.80;58.95
51313;BME280;37397;53.226;10.400;2023-07-13T07:27:41;100968.69;;;20.83;59.12
51313;BME280;37397;53.226;10.400;2023-07-13T07:30:11;100960.19;;;20.85;59.32
51313;BME280;37397;53.226;10.400;2023-07-13T07:32:40;100954.41;;;20.85;59.15
51313;BME280;37397;53.226;10.400;2023-07-13T07:35:23;100963.81;;;20.91;59.05
51313;BME280;37397;53.226;10.400;2023-07-13T07:37:50;100967.72;;;20.93;59.39
51313;BME280;37397;53.226;10.400;2023-07-13T07:40:18;100960.03;;;20.96;59.24
51313;BME280;37397;53.226;10.400;2023-07-13T07:42:47;100962.06;;;21.01;59.23
51313;BME280;37397;53.226;10.400;2023-07-13T07:45:14;100968.88;;;21.04;59.32
51313;BME280;37397;53.226;10.400;2023-07-13T07:47:40;100968.31;;;21.05;59.30
51313;BME280;37397;53.226;10.400;2023-07-13T07:50:07;100963.31;;;21.06;59.04
51313;BME280;37397;53.226;10.400;2023-07-13T07:52:34;100961.63;;;21.10;58.91
51313;BME280;37397;53.226;10.400;2023-07-13T07:55:01;100976.63;;;21.15;59.17
51313;BME280;37397;53.226;10.400;2023-07-13T07:57:30;100965.78;;;21.15;59.18
51313;BME280;37397;53.226;10.400;2023-07-13T08:00:00;100975.72;;;21.20;59.04
51313;BME280;37397;53.226;10.400;2023-07-13T08:02:39;100970.69;;;21.20;58.99
51313;BME280;37397;53.226;10.400;2023-07-13T08:05:27;100969.38;;;21.21;58.88
51313;BME280;37397;53.226;10.400;2023-07-13T08:07:56;100975.09;;;21.27;58.91
51313;BME280;37397;53.226;10.400;2023-07-13T08:10:23;100963.94;;;21.31;58.73
51313;BME280;37397;53.226;10.400;2023-07-13T08:12:49;100974.00;;;21.30;59.01
51313;BME280;37397;53.226;10.400;2023-07-13T08:15:19;100963.38;;;21.33;58.62
51313;BME280;37397;53.226;10.400;2023-07-13T08:17:48;100969.66;;;21.37;58.61
51313;BME280;37397;53.226;10.400;2023-07-13T08:20:15;100967.72;;;21.39;58.68
51313;BME280;37397;53.226;10.400;2023-07-13T08:22:42;100981.16;;;21.42;58.75
51313;BME280;37397;53.226;10.400;2023-07-13T08:25:09;100974.00;;;21.43;58.60
51313;BME280;37397;53.226;10.400;2023-07-13T08:27:35;100972.91;;;21.46;58.45
51313;BME280;37397;53.226;10.400;2023-07-13T08:30:02;100973.66;;;21.47;58.57
51313;BME280;37397;53.226;10.400;2023-07-13T08:32:29;100971.81;;;21.49;58.22
51313;BME280;37397;53.226;10.400;2023-07-13T08:34:55;100978.06;;;21.54;58.24
51313;BME280;37397;53.226;10.400;2023-07-13T08:37:22;100968.03;;;21.55;58.11
51313;BME280;37397;53.226;10.400;2023-07-13T08:39:48;100961.88;;;21.58;58.09
51313;BME280;37397;53.226;10.400;2023-07-13T08:47:21;100972.84;;;21.65;57.89
51313;BME280;37397;53.226;10.400;2023-07-13T08:49:49;100968.03;;;21.68;57.89
51313;BME280;37397;53.226;10.400;2023-07-13T08:54:50;100964.78;;;21.72;57.50
51313;BME280;37397;53.226;10.400;2023-07-13T08:57:21;100957.84;;;21.75;57.42
51313;BME280;37397;53.226;10.400;2023-07-13T08:59:50;100971.06;;;21.76;57.33
51313;BME280;37397;53.226;10.400;2023-07-13T09:02:27;100966.25;;;21.78;57.12
51313;BME280;37397;53.226;10.400;2023-07-13T09:05:10;100969.94;;;21.79;56.81
51313;BME280;37397;53.226;10.400;2023-07-13T09:10:21;100965.91;;;21.82;56.85
51313;BME280;37397;53.226;10.400;2023-07-13T09:13:03;100969.59;;;21.82;56.76
51313;BME280;37397;53.226;10.400;2023-07-13T09:15:41;100977.00;;;21.83;56.70
51313;BME280;37397;53.226;10.400;2023-07-13T09:18:15;100975.06;;;21.86;56.67
51313;BME280;37397;53.226;10.400;2023-07-13T09:21:02;100965.56;;;21.85;56.65
51313;BME280;37397;53.226;10.400;2023-07-13T09:23:30;100970.28;;;21.89;56.61
51313;BME280;37397;53.226;10.400;2023-07-13T09:26:06;100963.34;;;21.92;56.54
51313;BME280;37397;53.226;10.400;2023-07-13T09:28:41;100975.19;;;21.94;56.40
51313;BME280;37397;53.226;10.400;2023-07-13T09:31:14;100965.34;;;21.97;56.56
51313;BME280;37397;53.226;10.400;2023-07-13T09:33:41;100967.69;;;21.98;56.61
51313;BME280;37397;53.226;10.400;2023-07-13T09:36:24;100953.50;;;21.95;56.67
51313;BME280;37397;53.226;10.400;2023-07-13T09:39:05;100961.53;;;22.02;56.57
51313;BME280;37397;53.226;10.400;2023-07-13T09:44:35;100968.81;;;22.09;56.56
51313;BME280;37397;53.226;10.400;2023-07-13T09:47:03;100961.88;;;22.12;56.49
51313;BME280;37397;53.226;10.400;2023-07-13T09:49:41;100951.25;;;22.14;56.63
51313;BME280;37397;53.226;10.400;2023-07-13T09:52:12;100970.47;;;22.17;56.39
51313;BME280;37397;53.226;10.400;2023-07-13T09:54:44;100961.97;;;22.19;56.25
51313;BME280;37397;53.226;10.400;2023-07-13T09:57:17;100989.38;;;22.24;55.93
51313;BME280;37397;53.226;10.400;2023-07-13T09:59:48;100977.94;;;22.26;56.24
51313;BME280;37397;53.226;10.400;2023-07-13T10:02:35;100988.81;;;22.26;56.16
51313;BME280;37397;53.226;10.400;2023-07-13T10:05:11;100995.06;;;22.30;56.24
51313;BME280;37397;53.226;10.400;2023-07-13T10:07:40;100996.88;;;22.33;56.27
51313;BME280;37397;53.226;10.400;2023-07-13T10:10:21;100982.13;;;22.31;56.38
51313;BME280;37397;53.226;10.400;2023-07-13T10:12:49;100981.44;;;22.38;56.29
51313;BME280;37397;53.226;10.400;2023-07-13T10:15:22;100979.31;;;22.38;56.36
51313;BME280;37397;53.226;10.400;2023-07-13T10:17:54;100976.50;;;22.33;56.52
51313;BME280;37397;53.226;10.400;2023-07-13T10:20:22;100973.84;;;22.35;56.28
51313;BME280;37397;53.226;10.400;2023-07-13T10:22:54;100973.50;;;22.38;56.26
51313;BME280;37397;53.226;10.400;2023-07-13T10:25:24;100976.50;;;22.33;56.30
51313;BME280;37397;53.226;10.400;2023-07-13T10:27:58;100974.06;;;22.37;56.14
51313;BME280;37397;53.226;10.400;2023-07-13T10:30:35;100966.91;;;22.38;56.20
51313;BME280;37397;53.226;10.400;2023-07-13T10:33:10;100972.38;;;22.42;56.04
51313;BME280;37397;53.226;10.400;2023-07-13T10:35:40;100973.34;;;22.44;55.90
51313;BME280;37397;53.226;10.400;2023-07-13T10:38:18;100970.44;;;22.44;55.44
51313;BME280;37397;53.226;10.400;2023-07-13T10:40:56;100968.56;;;22.47;55.60
51313;BME280;37397;53.226;10.400;2023-07-13T10:43:35;100969.31;;;22.47;55.57
51313;BME280;37397;53.226;10.400;2023-07-13T10:46:07;100970.34;;;22.50;55.54
51313;BME280;37397;53.226;10.400;2023-07-13T10:48:36;100968.44;;;22.52;55.68
51313;BME280;37397;53.226;10.400;2023-07-13T10:51:05;100981.81;;;22.55;55.52
51313;BME280;37397;53.226;10.400;2023-07-13T10:53:37;100978.34;;;22.57;55.39
51313;BME280;37397;53.226;10.400;2023-07-13T10:56:22;100977.59;;;22.56;55.09
51313;BME280;37397;53.226;10.400;2023-07-13T10:59:02;100970.63;;;22.60;55.23
51313;BME280;37397;53.226;10.400;2023-07-13T11:01:50;100969.31;;;22.61;55.15
51313;BME280;37397;53.226;10.400;2023-07-13T11:04:19;100968.19;;;22.64;55.23
51313;BME280;37397;53.226;10.400;2023-07-13T11:06:48;100968.19;;;22.64;54.96
51313;BME280;37397;53.226;10.400;2023-07-13T11:09:34;100969.72;;;22.65;54.37
51313;BME280;37397;53.226;10.400;2023-07-13T11:15:03;100968.59;;;22.68;54.37
51313;BME280;37397;53.226;10.400;2023-07-13T11:17:37;100966.91;;;22.72;54.60
51313;BME280;37397;53.226;10.400;2023-07-13T11:28:05;100952.00;;;22.76;53.26
51313;BME280;37397;53.226;10.400;2023-07-13T11:30:45;100949.75;;;22.82;53.23
51313;BME280;37397;53.226;10.400;2023-07-13T11:33:24;100960.59;;;22.82;52.62
51313;BME280;37397;53.226;10.400;2023-07-13T11:38:28;100960.03;;;22.83;52.04
51313;BME280;37397;53.226;10.400;2023-07-13T11:40:58;100963.16;;;22.85;52.45
51313;BME280;37397;53.226;10.400;2023-07-13T11:43:29;100956.22;;;22.88;52.23
51313;BME280;37397;53.226;10.400;2023-07-13T11:45:56;100970.19;;;22.90;52.45
51313;BME280;37397;53.226;10.400;2023-07-13T11:48:28;100962.25;;;22.90;52.42
51313;BME280;37397;53.226;10.400;2023-07-13T11:51:02;100950.03;;;22.92;52.08
51313;BME280;37397;53.226;10.400;2023-07-13T11:53:30;100962.59;;;22.87;52.07
51313;BME280;37397;53.226;10.400;2023-07-13T11:56:02;100971.19;;;22.92;52.31
51313;BME280;37397;53.226;10.400;2023-07-13T11:58:29;100974.31;;;22.94;52.48
51313;BME280;37397;53.226;10.400;2023-07-13T12:00:58;100974.53;;;22.97;51.74
51313;BME280;37397;53.226;10.400;2023-07-13T12:03:27;100973.97;;;22.98;52.23
51313;BME280;37397;53.226;10.400;2023-07-13T12:06:03;100969.16;;;23.01;51.58
51313;BME280;37397;53.226;10.400;2023-07-13T12:08:38;100964.09;;;23.01;51.47
51313;BME280;37397;53.226;10.400;2023-07-13T12:11:16;100980.44;;;23.04;51.13
51313;BME280;37397;53.226;10.400;2023-07-13T12:13:44;100963.41;;;23.08;51.62
51313;BME280;37397;53.226;10.400;2023-07-13T12:16:15;100971.56;;;23.10;51.50
51313;BME280;37397;53.226;10.400;2023-07-13T12:18:43;100975.50;;;23.12;51.64
51313;BME280;37397;53.226;10.400;2023-07-13T12:21:17;100981.31;;;23.12;51.44
51313;BME280;37397;53.226;10.400;2023-07-13T12:23:47;100975.13;;;23.16;51.55
51313;BME280;37397;53.226;10.400;2023-07-13T12:26:17;100975.34;;;23.18;51.88
51313;BME280;37397;53.226;10.400;2023-07-13T12:28:53;100971.09;;;23.19;50.99
51313;BME280;37397;53.226;10.400;2023-07-13T12:34:07;100979.09;;;23.26;51.11
51313;BME280;37397;53.226;10.400;2023-07-13T12:36:37;100982.00;;;23.26;51.05
51313;BME280;37397;53.226;10.400;2023-07-13T12:39:12;100993.88;;;23.28;50.55
51313;BME280;37397;53.226;10.400;2023-07-13T12:41:39;100992.50;;;23.29;50.64
51313;BME280;37397;53.226;10.400;2023-07-13T12:44:11;100990.41;;;23.30;49.82
51313;BME280;37397;53.226;10.400;2023-07-13T12:46:38;100998.56;;;23.32;50.34
51313;BME280;37397;53.226;10.400;2023-07-13T12:49:07;101001.50;;;23.32;50.19
51313;BME280;37397;53.226;10.400;2023-07-13T12:51:50;101005.94;;;23.33;50.65
51313;BME280;37397;53.226;10.400;2023-07-13T12:54:18;101031.59;;;23.34;50.90
51313;BME280;37397;53.226;10.400;2023-07-13T12:56:49;101033.94;;;23.36;51.09
51313;BME280;37397;53.226;10.400;2023-07-13T12:59:21;101030.44;;;23.37;51.03
51313;BME280;37397;53.226;10.400;2023-07-13T13:01:49;101061.16;;;23.38;51.22
51313;BME280;37397;53.226;10.400;2023-07-13T13:04:16;101093.75;;;23.37;51.08
51313;BME280;37397;53.226;10.400;2023-07-13T13:06:48;101110.44;;;23.36;51.26
51313;BME280;37397;53.226;10.400;2023-07-13T13:09:17;101124.78;;;23.34;51.67
51313;BME280;37397;53.226;10.400;2023-07-13T13:11:46;101139.91;;;23.33;51.65
51313;BME280;37397;53.226;10.400;2023-07-13T13:14:12;101145.06;;;23.26;51.95
51313;BME280;37397;53.226;10.400;2023-07-13T13:16:46;101159.41;;;23.24;52.06
51313;BME280;37397;53.226;10.400;2023-07-13T13:19:18;101162.13;;;23.22;52.36
51313;BME280;37397;53.226;10.400;2023-07-13T13:21:46;101155.28;;;23.20;52.21